T7ZEM SCSE-SCCI
Flight info
| Callsign | T7ZEM |
|---|---|
| Flight time | N/A |
| Altitude | 29000 |
| Route | EDRON5 EDRON UL302 ISGUD UQ803 NEDAX NEDAX3E |
| Aircraft | TBM8/L-SDFGRWY/S |
Departure
| Time | 2026-04-25 16:57 |
|---|---|
| Airport | La Florida Airport (SCSE) |
Arrival
| Time | N/A |
|---|---|
| Airport | President Carlos Ibáñez International Airport (SCCI) |
| Time | Latitude | Longitude | Altitude | Speed | Heading |
|---|---|---|---|---|---|
| 2026-04-25 16:47 | -29.91723 | -71.20117 | 463 ft | 0 kts | 203° |
| 2026-04-25 16:54 | -29.91730 | -71.20126 | 464 ft | 5 kts | 258° |
| 2026-04-25 16:54 | -29.91675 | -71.20160 | 461 ft | 14 kts | 20° |
| 2026-04-25 16:55 | -29.91608 | -71.20118 | 462 ft | 16 kts | 50° |
| 2026-04-25 16:55 | -29.91665 | -71.19917 | 464 ft | 25 kts | 112° |
| 2026-04-25 16:55 | -29.91749 | -71.19714 | 468 ft | 31 kts | 117° |
| 2026-04-25 16:55 | -29.91851 | -71.19480 | 471 ft | 35 kts | 116° |
| 2026-04-25 16:56 | -29.91964 | -71.19220 | 475 ft | 36 kts | 121° |
| 2026-04-25 16:56 | -29.92046 | -71.19054 | 476 ft | 15 kts | 22° |
| 2026-04-25 16:56 | -29.91985 | -71.19164 | 476 ft | 24 kts | 298° |
| 2026-04-25 16:56 | -29.91851 | -71.19478 | 473 ft | 69 kts | 296° |
| 2026-04-25 16:57 | -29.91570 | -71.20133 | 531 ft | 105 kts | 295° |
| 2026-04-25 16:57 | -29.91339 | -71.20668 | 655 ft | 120 kts | 296° |
| 2026-04-25 16:57 | -29.90780 | -71.21924 | 1060 ft | 144 kts | 292° |
| 2026-04-25 16:57 | -29.90363 | -71.23055 | 1307 ft | 161 kts | 293° |
| 2026-04-25 16:58 | -29.89873 | -71.24242 | 1562 ft | 172 kts | 295° |
| 2026-04-25 16:58 | -29.89339 | -71.25492 | 1808 ft | 177 kts | 295° |
| 2026-04-25 16:58 | -29.88783 | -71.26801 | 2069 ft | 185 kts | 295° |
| 2026-04-25 16:58 | -29.88256 | -71.28086 | 2653 ft | 170 kts | 290° |
| 2026-04-25 16:59 | -29.88194 | -71.29434 | 2983 ft | 175 kts | 252° |
| 2026-04-25 16:59 | -29.88837 | -71.30635 | 3248 ft | 181 kts | 219° |
| 2026-04-25 16:59 | -29.89968 | -71.31193 | 3600 ft | 180 kts | 186° |
| 2026-04-25 16:59 | -29.91216 | -71.31067 | 3972 ft | 180 kts | 172° |
| 2026-04-25 17:00 | -29.92461 | -71.30893 | 4370 ft | 181 kts | 173° |
| 2026-04-25 17:00 | -29.93688 | -71.30728 | 4812 ft | 179 kts | 173° |
| 2026-04-25 17:00 | -29.94936 | -71.30550 | 5152 ft | 182 kts | 173° |
| 2026-04-25 17:00 | -29.96190 | -71.30374 | 5566 ft | 182 kts | 173° |
| 2026-04-25 17:01 | -29.97453 | -71.30196 | 5971 ft | 184 kts | 173° |
| 2026-04-25 17:01 | -29.98730 | -71.30016 | 6350 ft | 186 kts | 173° |
| 2026-04-25 17:01 | -30.00032 | -71.29833 | 6643 ft | 191 kts | 173° |
| 2026-04-25 17:01 | -30.01360 | -71.29645 | 6976 ft | 193 kts | 173° |
| 2026-04-25 17:02 | -30.02708 | -71.29455 | 7292 ft | 197 kts | 173° |
| 2026-04-25 17:02 | -30.04059 | -71.29265 | 7604 ft | 200 kts | 173° |
| 2026-04-25 17:02 | -30.05453 | -71.29069 | 7940 ft | 202 kts | 173° |
| 2026-04-25 17:02 | -30.06861 | -71.28872 | 8232 ft | 206 kts | 173° |
| 2026-04-25 17:03 | -30.08282 | -71.28672 | 8626 ft | 206 kts | 173° |
| 2026-04-25 17:03 | -30.09723 | -71.28628 | 8952 ft | 209 kts | 183° |
| 2026-04-25 17:03 | -30.11182 | -71.28694 | 9293 ft | 211 kts | 182° |
| 2026-04-25 17:03 | -30.12661 | -71.28729 | 9663 ft | 214 kts | 181° |
| 2026-04-25 17:04 | -30.14155 | -71.28768 | 10037 ft | 216 kts | 182° |
| 2026-04-25 17:04 | -30.15638 | -71.28818 | 10394 ft | 216 kts | 182° |
| 2026-04-25 17:04 | -30.17156 | -71.28868 | 10807 ft | 215 kts | 183° |
| 2026-04-25 17:04 | -30.18636 | -71.28914 | 11189 ft | 216 kts | 183° |
| 2026-04-25 17:05 | -30.20136 | -71.28961 | 11553 ft | 216 kts | 183° |
| 2026-04-25 17:05 | -30.23155 | -71.29055 | 12300 ft | 218 kts | 184° |
| 2026-04-25 17:05 | -30.24669 | -71.29102 | 12695 ft | 218 kts | 184° |
| 2026-04-25 17:06 | -30.26188 | -71.29150 | 13062 ft | 219 kts | 184° |
| 2026-04-25 17:06 | -30.27712 | -71.29199 | 13439 ft | 219 kts | 184° |
| 2026-04-25 17:06 | -30.29219 | -71.29245 | 13807 ft | 220 kts | 184° |
| 2026-04-25 17:06 | -30.30749 | -71.29292 | 14141 ft | 220 kts | 185° |
| 2026-04-25 17:07 | -30.32276 | -71.29339 | 14445 ft | 219 kts | 185° |
| 2026-04-25 17:07 | -30.33801 | -71.29385 | 14755 ft | 219 kts | 186° |
| 2026-04-25 17:07 | -30.35324 | -71.29447 | 15111 ft | 219 kts | 186° |
| 2026-04-25 17:07 | -30.36858 | -71.29488 | 15354 ft | 221 kts | 186° |
| 2026-04-25 17:08 | -30.38385 | -71.29541 | 15742 ft | 219 kts | 186° |
| 2026-04-25 17:08 | -30.39905 | -71.29572 | 16100 ft | 218 kts | 186° |
| 2026-04-25 17:08 | -30.41402 | -71.29622 | 16426 ft | 218 kts | 188° |
| 2026-04-25 17:08 | -30.42917 | -71.29675 | 16811 ft | 218 kts | 187° |
| 2026-04-25 17:09 | -30.44427 | -71.29716 | 17171 ft | 217 kts | 188° |
| 2026-04-25 17:09 | -30.45934 | -71.29765 | 17508 ft | 217 kts | 189° |
| 2026-04-25 17:09 | -30.47441 | -71.29813 | 17821 ft | 217 kts | 189° |
| 2026-04-25 17:09 | -30.48948 | -71.29860 | 18136 ft | 216 kts | 189° |
| 2026-04-25 17:10 | -30.49940 | -71.29891 | 18340 ft | 216 kts | 189° |
| 2026-04-25 17:10 | -30.51949 | -71.29960 | 18690 ft | 217 kts | 189° |
| 2026-04-25 17:10 | -30.53460 | -71.30000 | 18952 ft | 217 kts | 189° |
| 2026-04-25 17:10 | -30.54952 | -71.30036 | 19203 ft | 219 kts | 188° |
| 2026-04-25 17:11 | -30.56462 | -71.29534 | 19460 ft | 238 kts | 161° |
| 2026-04-25 17:11 | -30.57924 | -71.28596 | 19642 ft | 241 kts | 161° |
| 2026-04-25 17:11 | -30.59406 | -71.27672 | 19875 ft | 242 kts | 162° |
| 2026-04-25 17:11 | -30.60895 | -71.26753 | 20123 ft | 243 kts | 162° |
| 2026-04-25 17:12 | -30.62390 | -71.25826 | 20356 ft | 244 kts | 162° |
| 2026-04-25 17:12 | -30.63892 | -71.24890 | 20587 ft | 246 kts | 162° |
| 2026-04-25 17:12 | -30.65381 | -71.23963 | 20818 ft | 247 kts | 162° |
| 2026-04-25 17:12 | -30.66897 | -71.23019 | 21048 ft | 248 kts | 162° |
| 2026-04-25 17:13 | -30.68420 | -71.22070 | 21316 ft | 249 kts | 162° |
| 2026-04-25 17:13 | -30.69451 | -71.21433 | 21488 ft | 249 kts | 163° |
| 2026-04-25 17:13 | -30.71483 | -71.20164 | 21809 ft | 251 kts | 162° |
| 2026-04-25 17:13 | -30.73023 | -71.19196 | 22058 ft | 252 kts | 163° |
| 2026-04-25 17:14 | -30.74575 | -71.18233 | 22283 ft | 253 kts | 163° |
| 2026-04-25 17:14 | -30.76134 | -71.17260 | 22475 ft | 255 kts | 163° |
| 2026-04-25 17:14 | -30.77699 | -71.16280 | 22682 ft | 256 kts | 163° |
| 2026-04-25 17:14 | -30.79247 | -71.15320 | 22834 ft | 256 kts | 164° |
| 2026-04-25 17:15 | -30.80824 | -71.14350 | 22883 ft | 257 kts | 163° |
| 2026-04-25 17:15 | -30.82397 | -71.13361 | 22998 ft | 256 kts | 163° |
| 2026-04-25 17:15 | -30.83956 | -71.12375 | 23126 ft | 254 kts | 163° |
| 2026-04-25 17:15 | -30.85516 | -71.11400 | 23203 ft | 255 kts | 164° |
| 2026-04-25 17:16 | -30.87080 | -71.10425 | 23288 ft | 255 kts | 164° |
| 2026-04-25 17:16 | -30.88648 | -71.09445 | 23362 ft | 256 kts | 164° |
| 2026-04-25 17:16 | -30.90198 | -71.08471 | 23438 ft | 256 kts | 164° |
| 2026-04-25 17:16 | -30.91768 | -71.07489 | 23518 ft | 256 kts | 164° |
| 2026-04-25 17:17 | -30.93338 | -71.06498 | 23627 ft | 256 kts | 165° |
| 2026-04-25 17:17 | -30.94906 | -71.05527 | 23696 ft | 256 kts | 165° |
| 2026-04-25 17:17 | -30.96481 | -71.04543 | 23764 ft | 257 kts | 164° |
| 2026-04-25 17:17 | -30.98049 | -71.03554 | 23840 ft | 257 kts | 164° |
| 2026-04-25 17:18 | -30.99625 | -71.02557 | 23909 ft | 258 kts | 164° |
| 2026-04-25 17:18 | -31.01201 | -71.01567 | 23987 ft | 257 kts | 165° |
| 2026-04-25 17:18 | -31.02784 | -71.00592 | 24052 ft | 258 kts | 165° |
| 2026-04-25 17:18 | -31.04361 | -70.99595 | 24120 ft | 258 kts | 164° |
| 2026-04-25 17:19 | -31.05917 | -70.98613 | 24186 ft | 258 kts | 165° |
| 2026-04-25 17:19 | -31.07495 | -70.97621 | 24262 ft | 258 kts | 165° |
| 2026-04-25 17:19 | -31.09074 | -70.96630 | 24329 ft | 258 kts | 165° |
| 2026-04-25 17:19 | -31.10654 | -70.95637 | 24397 ft | 258 kts | 165° |
| 2026-04-25 17:20 | -31.12235 | -70.94640 | 24466 ft | 259 kts | 165° |
| 2026-04-25 17:20 | -31.13821 | -70.93643 | 24536 ft | 259 kts | 165° |
| 2026-04-25 17:20 | -31.15412 | -70.92642 | 24606 ft | 261 kts | 165° |
| 2026-04-25 17:20 | -31.17012 | -70.91633 | 24707 ft | 262 kts | 165° |
| 2026-04-25 17:21 | -31.18616 | -70.90623 | 24779 ft | 263 kts | 165° |
| 2026-04-25 17:21 | -31.20206 | -70.89615 | 24862 ft | 265 kts | 163° |
| 2026-04-25 17:21 | -31.21810 | -70.88565 | 24917 ft | 262 kts | 166° |
| 2026-04-25 17:21 | -31.23408 | -70.87554 | 25026 ft | 261 kts | 166° |
| 2026-04-25 17:22 | -31.25018 | -70.86594 | 25099 ft | 260 kts | 168° |
| 2026-04-25 17:22 | -31.26090 | -70.85953 | 25147 ft | 262 kts | 166° |
| 2026-04-25 17:22 | -31.28245 | -70.84567 | 25246 ft | 264 kts | 165° |
| 2026-04-25 17:22 | -31.29849 | -70.83525 | 25331 ft | 264 kts | 165° |
| 2026-04-25 17:23 | -31.31464 | -70.82495 | 25398 ft | 265 kts | 166° |
| 2026-04-25 17:23 | -31.33080 | -70.81563 | 25462 ft | 255 kts | 175° |
| 2026-04-25 17:23 | -31.34737 | -70.81296 | 25526 ft | 231 kts | 197° |
| 2026-04-25 17:23 | -31.36321 | -70.81459 | 25610 ft | 228 kts | 199° |
| 2026-04-25 17:24 | -31.37907 | -70.81622 | 25677 ft | 229 kts | 199° |
| 2026-04-25 17:24 | -31.39491 | -70.81773 | 25761 ft | 229 kts | 199° |
| 2026-04-25 17:24 | -31.41084 | -70.81928 | 25828 ft | 230 kts | 199° |
| 2026-04-25 17:24 | -31.42677 | -70.82085 | 25930 ft | 230 kts | 200° |
| 2026-04-25 17:25 | -31.44263 | -70.82224 | 25969 ft | 225 kts | 201° |
| 2026-04-25 17:25 | -31.45790 | -70.82376 | 26051 ft | 217 kts | 201° |
| 2026-04-25 17:25 | -31.47285 | -70.82538 | 26119 ft | 215 kts | 202° |
| 2026-04-25 17:25 | -31.48755 | -70.82678 | 26184 ft | 214 kts | 199° |
| 2026-04-25 17:26 | -31.50226 | -70.82742 | 26201 ft | 201 kts | 201° |
| 2026-04-25 17:26 | -31.51557 | -70.82959 | 26279 ft | 190 kts | 205° |
| 2026-04-25 17:26 | -31.52874 | -70.83122 | 26348 ft | 190 kts | 201° |
| 2026-04-25 17:26 | -31.54186 | -70.83204 | 26431 ft | 189 kts | 201° |
| 2026-04-25 17:27 | -31.55502 | -70.83347 | 26505 ft | 192 kts | 203° |
| 2026-04-25 17:27 | -31.56860 | -70.83504 | 26581 ft | 199 kts | 202° |
| 2026-04-25 17:27 | -31.58247 | -70.83630 | 26655 ft | 200 kts | 202° |
| 2026-04-25 17:27 | -31.59162 | -70.83709 | 26691 ft | 199 kts | 201° |
| 2026-04-25 17:28 | -31.60964 | -70.83874 | 26799 ft | 194 kts | 204° |
| 2026-04-25 17:28 | -31.62305 | -70.84033 | 26866 ft | 194 kts | 204° |
| 2026-04-25 17:28 | -31.63642 | -70.84147 | 26943 ft | 192 kts | 202° |
| 2026-04-25 17:28 | -31.64985 | -70.84293 | 27027 ft | 197 kts | 203° |
| 2026-04-25 17:29 | -31.66374 | -70.84440 | 27094 ft | 201 kts | 204° |
| 2026-04-25 17:29 | -31.67741 | -70.84555 | 27193 ft | 197 kts | 202° |
| 2026-04-25 17:29 | -31.69117 | -70.84697 | 27304 ft | 201 kts | 203° |
| 2026-04-25 17:29 | -31.70531 | -70.84852 | 27380 ft | 206 kts | 202° |
| 2026-04-25 17:30 | -31.71948 | -70.84989 | 27454 ft | 208 kts | 203° |
| 2026-04-25 17:30 | -31.73387 | -70.85113 | 27544 ft | 208 kts | 202° |
| 2026-04-25 17:30 | -31.74833 | -70.85262 | 27618 ft | 210 kts | 202° |
| 2026-04-25 17:30 | -31.76343 | -70.85258 | 27707 ft | 222 kts | 195° |
| 2026-04-25 17:31 | -31.77891 | -70.85193 | 27786 ft | 223 kts | 196° |
| 2026-04-25 17:31 | -31.79452 | -70.85156 | 27872 ft | 226 kts | 196° |
| 2026-04-25 17:31 | -31.81035 | -70.85108 | 27954 ft | 229 kts | 195° |
| 2026-04-25 17:31 | -31.82632 | -70.85037 | 28033 ft | 231 kts | 195° |
| 2026-04-25 17:32 | -31.84243 | -70.84977 | 28088 ft | 233 kts | 195° |
| 2026-04-25 17:32 | -31.85850 | -70.84920 | 28089 ft | 235 kts | 196° |
| 2026-04-25 17:32 | -31.87488 | -70.84861 | 28098 ft | 237 kts | 195° |
| 2026-04-25 17:32 | -31.89145 | -70.84805 | 28101 ft | 239 kts | 195° |
| 2026-04-25 17:33 | -31.90817 | -70.84746 | 28104 ft | 241 kts | 195° |
| 2026-04-25 17:33 | -31.92501 | -70.84678 | 28106 ft | 243 kts | 194° |
| 2026-04-25 17:33 | -31.94189 | -70.84624 | 28107 ft | 243 kts | 195° |
| 2026-04-25 17:33 | -31.95896 | -70.84582 | 28106 ft | 247 kts | 194° |
| 2026-04-25 17:34 | -31.97620 | -70.84506 | 28103 ft | 248 kts | 194° |
| 2026-04-25 17:34 | -31.99341 | -70.84435 | 28104 ft | 247 kts | 194° |
| 2026-04-25 17:34 | -32.01039 | -70.84394 | 28109 ft | 247 kts | 195° |
| 2026-04-25 17:34 | -32.02773 | -70.84331 | 28103 ft | 251 kts | 193° |
| 2026-04-25 17:35 | -32.04512 | -70.84244 | 28103 ft | 249 kts | 194° |
| 2026-04-25 17:35 | -32.06237 | -70.84186 | 28102 ft | 247 kts | 195° |
| 2026-04-25 17:35 | -32.07952 | -70.84135 | 28099 ft | 247 kts | 194° |
| 2026-04-25 17:35 | -32.09674 | -70.84074 | 28100 ft | 247 kts | 194° |
| 2026-04-25 17:36 | -32.11392 | -70.84008 | 28106 ft | 247 kts | 194° |
| 2026-04-25 17:36 | -32.13105 | -70.83949 | 28110 ft | 246 kts | 194° |
| 2026-04-25 17:36 | -32.14813 | -70.83889 | 28110 ft | 246 kts | 194° |
| 2026-04-25 17:36 | -32.16532 | -70.83827 | 28105 ft | 247 kts | 194° |
| 2026-04-25 17:37 | -32.18224 | -70.83769 | 28109 ft | 248 kts | 194° |
| 2026-04-25 17:37 | -32.19945 | -70.83704 | 28110 ft | 247 kts | 194° |
| 2026-04-25 17:37 | -32.21669 | -70.83645 | 28120 ft | 248 kts | 194° |
| 2026-04-25 17:37 | -32.23396 | -70.83581 | 28120 ft | 248 kts | 194° |
| 2026-04-25 17:38 | -32.25117 | -70.83519 | 28120 ft | 247 kts | 194° |
| 2026-04-25 17:38 | -32.26253 | -70.83474 | 28127 ft | 247 kts | 193° |
| 2026-04-25 17:38 | -32.28560 | -70.83389 | 28112 ft | 247 kts | 194° |
| 2026-04-25 17:38 | -32.30256 | -70.83354 | 28110 ft | 247 kts | 194° |
| 2026-04-25 17:39 | -32.32004 | -70.83281 | 28110 ft | 248 kts | 193° |
| 2026-04-25 17:39 | -32.33702 | -70.83203 | 28112 ft | 248 kts | 193° |
| 2026-04-25 17:39 | -32.35427 | -70.83142 | 28112 ft | 248 kts | 194° |
| 2026-04-25 17:39 | -32.37152 | -70.83090 | 28111 ft | 248 kts | 194° |
| 2026-04-25 17:40 | -32.38878 | -70.83028 | 28113 ft | 248 kts | 194° |
| 2026-04-25 17:40 | -32.40606 | -70.82964 | 28117 ft | 248 kts | 194° |
| 2026-04-25 17:40 | -32.42334 | -70.82897 | 28115 ft | 248 kts | 194° |
| 2026-04-25 17:40 | -32.44063 | -70.82840 | 28120 ft | 249 kts | 194° |
| 2026-04-25 17:41 | -32.45778 | -70.82781 | 28116 ft | 250 kts | 193° |
| 2026-04-25 17:41 | -32.47520 | -70.82704 | 28112 ft | 250 kts | 193° |
| 2026-04-25 17:41 | -32.49261 | -70.82660 | 28117 ft | 252 kts | 193° |
| 2026-04-25 17:41 | -32.51030 | -70.82579 | 28116 ft | 257 kts | 191° |
| 2026-04-25 17:42 | -32.52818 | -70.82489 | 28108 ft | 255 kts | 194° |
| 2026-04-25 17:42 | -32.54574 | -70.82493 | 28115 ft | 252 kts | 194° |
| 2026-04-25 17:42 | -32.56336 | -70.82410 | 28122 ft | 255 kts | 193° |
| 2026-04-25 17:42 | -32.58101 | -70.82331 | 28131 ft | 253 kts | 194° |
| 2026-04-25 17:43 | -32.59842 | -70.82268 | 28114 ft | 254 kts | 193° |
| 2026-04-25 17:43 | -32.61606 | -70.82175 | 28124 ft | 253 kts | 193° |
| 2026-04-25 17:43 | -32.63358 | -70.82138 | 28118 ft | 251 kts | 196° |
| 2026-04-25 17:43 | -32.65101 | -70.82116 | 28116 ft | 250 kts | 194° |
| 2026-04-25 17:44 | -32.66837 | -70.82032 | 28104 ft | 248 kts | 193° |
| 2026-04-25 17:44 | -32.68545 | -70.81944 | 28111 ft | 243 kts | 194° |
| 2026-04-25 17:44 | -32.70231 | -70.81882 | 28114 ft | 243 kts | 193° |
| 2026-04-25 17:44 | -32.71914 | -70.81815 | 28124 ft | 241 kts | 194° |
| 2026-04-25 17:45 | -32.73595 | -70.81777 | 28126 ft | 242 kts | 194° |
| 2026-04-25 17:45 | -32.74707 | -70.81750 | 28122 ft | 243 kts | 194° |
| 2026-04-25 17:45 | -32.76957 | -70.81650 | 28125 ft | 245 kts | 193° |
| 2026-04-25 17:45 | -32.78652 | -70.81580 | 28127 ft | 244 kts | 193° |
| 2026-04-25 17:46 | -32.80354 | -70.81525 | 28125 ft | 245 kts | 193° |
| 2026-04-25 17:46 | -32.82068 | -70.81475 | 28125 ft | 247 kts | 193° |
| 2026-04-25 17:46 | -32.83786 | -70.81415 | 28131 ft | 249 kts | 193° |
| 2026-04-25 17:46 | -32.85522 | -70.81337 | 28119 ft | 249 kts | 192° |
| 2026-04-25 17:47 | -32.87251 | -70.81270 | 28123 ft | 248 kts | 193° |
| 2026-04-25 17:47 | -32.88976 | -70.81207 | 28125 ft | 248 kts | 193° |
| 2026-04-25 17:47 | -32.90678 | -70.81151 | 28122 ft | 248 kts | 193° |
| 2026-04-25 17:47 | -32.92388 | -70.81143 | 28127 ft | 240 kts | 199° |
| 2026-04-25 17:48 | -32.95716 | -70.81501 | 28128 ft | 240 kts | 199° |
| 2026-04-25 17:48 | -32.97384 | -70.81666 | 28135 ft | 241 kts | 199° |
| 2026-04-25 17:48 | -32.99053 | -70.81835 | 28137 ft | 241 kts | 199° |
| 2026-04-25 17:49 | -33.00722 | -70.82007 | 28138 ft | 241 kts | 199° |
| 2026-04-25 17:49 | -33.02393 | -70.82178 | 28145 ft | 241 kts | 199° |
| 2026-04-25 17:49 | -33.04040 | -70.82346 | 28145 ft | 241 kts | 199° |
| 2026-04-25 17:49 | -33.05702 | -70.82516 | 28146 ft | 240 kts | 199° |
| 2026-04-25 17:50 | -33.07366 | -70.82688 | 28150 ft | 240 kts | 199° |
| 2026-04-25 17:50 | -33.09031 | -70.82860 | 28151 ft | 240 kts | 199° |
| 2026-04-25 17:50 | -33.10701 | -70.83030 | 28152 ft | 241 kts | 199° |
| 2026-04-25 17:50 | -33.12371 | -70.83200 | 28155 ft | 241 kts | 199° |
| 2026-04-25 17:51 | -33.14039 | -70.83371 | 28158 ft | 240 kts | 199° |
| 2026-04-25 17:51 | -33.15706 | -70.83543 | 28159 ft | 240 kts | 199° |
| 2026-04-25 17:51 | -33.17373 | -70.83714 | 28158 ft | 240 kts | 199° |
| 2026-04-25 17:51 | -33.19016 | -70.83883 | 28160 ft | 240 kts | 199° |
| 2026-04-25 17:52 | -33.20682 | -70.84054 | 28157 ft | 240 kts | 199° |
| 2026-04-25 17:52 | -33.21803 | -70.84170 | 28156 ft | 240 kts | 199° |
| 2026-04-25 17:52 | -33.24006 | -70.84397 | 28162 ft | 239 kts | 198° |
| 2026-04-25 17:52 | -33.25658 | -70.84566 | 28162 ft | 238 kts | 198° |
| 2026-04-25 17:53 | -33.27307 | -70.84731 | 28160 ft | 238 kts | 198° |
| 2026-04-25 17:53 | -33.28952 | -70.84906 | 28159 ft | 237 kts | 198° |
| 2026-04-25 17:53 | -33.30599 | -70.85078 | 28159 ft | 238 kts | 198° |
| 2026-04-25 17:53 | -33.32248 | -70.85246 | 28159 ft | 238 kts | 198° |
| 2026-04-25 17:54 | -33.33875 | -70.85414 | 28161 ft | 238 kts | 198° |
| 2026-04-25 17:54 | -33.35525 | -70.85584 | 28162 ft | 238 kts | 198° |
| 2026-04-25 17:54 | -33.37175 | -70.85754 | 28162 ft | 238 kts | 198° |
| 2026-04-25 17:54 | -33.38826 | -70.85924 | 28161 ft | 238 kts | 198° |
| 2026-04-25 17:55 | -33.40476 | -70.86095 | 28159 ft | 238 kts | 198° |
| 2026-04-25 17:55 | -33.42126 | -70.86266 | 28159 ft | 238 kts | 198° |
| 2026-04-25 17:55 | -33.43776 | -70.86436 | 28159 ft | 238 kts | 198° |
| 2026-04-25 17:55 | -33.45422 | -70.86606 | 28159 ft | 238 kts | 198° |
| 2026-04-25 17:56 | -33.47073 | -70.86777 | 28162 ft | 238 kts | 198° |
| 2026-04-25 17:56 | -33.48709 | -70.86948 | 28173 ft | 240 kts | 197° |
| 2026-04-25 17:56 | -33.50367 | -70.87120 | 28163 ft | 239 kts | 197° |
| 2026-04-25 17:56 | -33.52024 | -70.87289 | 28164 ft | 239 kts | 197° |
| 2026-04-25 17:57 | -33.53678 | -70.87460 | 28174 ft | 239 kts | 197° |
| 2026-04-25 17:57 | -33.55334 | -70.87633 | 28168 ft | 239 kts | 197° |
| 2026-04-25 17:57 | -33.56988 | -70.87804 | 28169 ft | 238 kts | 197° |
| 2026-04-25 17:57 | -33.57544 | -70.87862 | 28170 ft | 238 kts | 197° |
| 2026-04-25 17:58 | -33.60288 | -70.88151 | 28154 ft | 238 kts | 197° |
| 2026-04-25 17:58 | -33.61917 | -70.88316 | 28154 ft | 238 kts | 197° |
| 2026-04-25 17:58 | -33.63564 | -70.88485 | 28156 ft | 238 kts | 197° |
| 2026-04-25 17:58 | -33.65211 | -70.88658 | 28159 ft | 237 kts | 197° |
| 2026-04-25 17:59 | -33.66857 | -70.88829 | 28159 ft | 237 kts | 197° |
| 2026-04-25 17:59 | -33.68498 | -70.89000 | 28161 ft | 237 kts | 197° |
| 2026-04-25 17:59 | -33.70142 | -70.89171 | 28166 ft | 237 kts | 197° |
| 2026-04-25 17:59 | -33.71786 | -70.89342 | 28161 ft | 237 kts | 197° |
| 2026-04-25 18:00 | -33.73429 | -70.89513 | 28202 ft | 237 kts | 195° |
| 2026-04-25 18:00 | -33.75074 | -70.89685 | 28184 ft | 237 kts | 196° |
| 2026-04-25 18:00 | -33.76720 | -70.89855 | 28184 ft | 237 kts | 196° |
| 2026-04-25 18:00 | -33.78334 | -70.90023 | 28184 ft | 236 kts | 196° |
| 2026-04-25 18:01 | -33.79971 | -70.90194 | 28185 ft | 236 kts | 196° |
| 2026-04-25 18:01 | -33.81605 | -70.90365 | 28185 ft | 235 kts | 195° |
| 2026-04-25 18:01 | -33.83243 | -70.90523 | 28174 ft | 236 kts | 196° |
| 2026-04-25 18:01 | -33.84879 | -70.90713 | 28174 ft | 236 kts | 196° |
| 2026-04-25 18:02 | -33.86518 | -70.90885 | 28172 ft | 236 kts | 195° |
| 2026-04-25 18:02 | -33.88156 | -70.91049 | 28170 ft | 236 kts | 196° |
| 2026-04-25 18:02 | -33.89784 | -70.91216 | 28171 ft | 233 kts | 196° |
| 2026-04-25 18:02 | -33.91393 | -70.91388 | 28177 ft | 232 kts | 196° |
| 2026-04-25 18:03 | -33.92976 | -70.91554 | 28184 ft | 233 kts | 196° |
| 2026-04-25 18:03 | -33.94594 | -70.91721 | 28187 ft | 234 kts | 196° |
| 2026-04-25 18:03 | -33.96219 | -70.91898 | 28191 ft | 235 kts | 197° |
| 2026-04-25 18:03 | -33.97843 | -70.92057 | 28188 ft | 233 kts | 195° |
| 2026-04-25 18:04 | -33.99463 | -70.92220 | 28188 ft | 235 kts | 196° |
| 2026-04-25 18:04 | -34.01097 | -70.92412 | 28191 ft | 237 kts | 196° |
| 2026-04-25 18:04 | -34.02692 | -70.92774 | 28188 ft | 232 kts | 202° |
| 2026-04-25 18:04 | -34.04263 | -70.93207 | 28196 ft | 232 kts | 201° |
| 2026-04-25 18:05 | -34.05814 | -70.93624 | 28195 ft | 231 kts | 202° |
| 2026-04-25 18:05 | -34.07387 | -70.94041 | 28197 ft | 231 kts | 201° |
| 2026-04-25 18:05 | -34.08964 | -70.94471 | 28190 ft | 233 kts | 202° |
| 2026-04-25 18:05 | -34.10541 | -70.94916 | 28193 ft | 233 kts | 202° |
| 2026-04-25 18:06 | -34.12128 | -70.95350 | 28194 ft | 234 kts | 202° |
| 2026-04-25 18:06 | -34.13721 | -70.95775 | 28194 ft | 235 kts | 202° |
| 2026-04-25 18:06 | -34.15309 | -70.96204 | 28201 ft | 234 kts | 202° |
| 2026-04-25 18:06 | -34.16897 | -70.96637 | 28198 ft | 234 kts | 202° |
| 2026-04-25 18:07 | -34.18477 | -70.97064 | 28204 ft | 233 kts | 202° |
| 2026-04-25 18:07 | -34.20040 | -70.97493 | 28202 ft | 234 kts | 202° |
| 2026-04-25 18:07 | -34.21627 | -70.97931 | 28200 ft | 234 kts | 202° |
| 2026-04-25 18:07 | -34.23214 | -70.98360 | 28200 ft | 233 kts | 202° |
| 2026-04-25 18:08 | -34.24796 | -70.98791 | 28227 ft | 233 kts | 201° |
| 2026-04-25 18:08 | -34.26378 | -70.99223 | 28212 ft | 233 kts | 201° |
| 2026-04-25 18:08 | -34.27957 | -70.99653 | 28211 ft | 232 kts | 201° |
| 2026-04-25 18:08 | -34.29532 | -71.00082 | 28211 ft | 232 kts | 201° |
| 2026-04-25 18:09 | -34.31084 | -71.00506 | 28206 ft | 231 kts | 201° |
| 2026-04-25 18:09 | -34.32651 | -71.00934 | 28208 ft | 231 kts | 201° |
| 2026-04-25 18:09 | -34.34219 | -71.01364 | 28208 ft | 231 kts | 202° |
| 2026-04-25 18:09 | -34.34747 | -71.01510 | 28214 ft | 231 kts | 202° |
| 2026-04-25 18:10 | -34.37356 | -71.02221 | 28212 ft | 231 kts | 201° |
| 2026-04-25 18:10 | -34.38925 | -71.02650 | 28211 ft | 231 kts | 201° |
| 2026-04-25 18:10 | -34.40491 | -71.03081 | 28217 ft | 231 kts | 201° |
| 2026-04-25 18:10 | -34.42061 | -71.03524 | 28218 ft | 232 kts | 201° |
| 2026-04-25 18:11 | -34.43643 | -71.03961 | 28217 ft | 233 kts | 203° |
| 2026-04-25 18:11 | -34.45231 | -71.04402 | 28219 ft | 235 kts | 200° |
| 2026-04-25 18:11 | -34.46808 | -71.04788 | 28219 ft | 233 kts | 201° |
| 2026-04-25 18:11 | -34.48386 | -71.05226 | 28217 ft | 232 kts | 202° |
| 2026-04-25 18:12 | -34.49958 | -71.05677 | 28217 ft | 233 kts | 202° |
| 2026-04-25 18:12 | -34.51542 | -71.06141 | 28220 ft | 235 kts | 201° |
| 2026-04-25 18:12 | -34.53144 | -71.06539 | 28223 ft | 234 kts | 200° |
| 2026-04-25 18:12 | -34.54728 | -71.06969 | 28225 ft | 233 kts | 201° |
| 2026-04-25 18:13 | -34.56308 | -71.07411 | 28225 ft | 233 kts | 201° |
| 2026-04-25 18:13 | -34.57883 | -71.07853 | 28226 ft | 232 kts | 201° |
| 2026-04-25 18:13 | -34.59433 | -71.08284 | 28228 ft | 233 kts | 201° |
| 2026-04-25 18:14 | -34.62584 | -71.09144 | 28225 ft | 231 kts | 201° |
| 2026-04-25 18:14 | -34.64153 | -71.09577 | 28224 ft | 231 kts | 201° |
| 2026-04-25 18:14 | -34.65719 | -71.10009 | 28228 ft | 231 kts | 201° |
| 2026-04-25 18:14 | -34.67283 | -71.10441 | 28225 ft | 230 kts | 201° |
| 2026-04-25 18:15 | -34.68844 | -71.10871 | 28222 ft | 229 kts | 201° |
| 2026-04-25 18:15 | -34.70400 | -71.11300 | 28224 ft | 229 kts | 201° |
| 2026-04-25 18:15 | -34.71958 | -71.11729 | 28222 ft | 230 kts | 201° |
| 2026-04-25 18:15 | -34.73509 | -71.12091 | 28226 ft | 231 kts | 199° |
| 2026-04-25 18:16 | -34.75076 | -71.12475 | 28225 ft | 229 kts | 201° |
| 2026-04-25 18:16 | -34.76633 | -71.12888 | 28242 ft | 230 kts | 200° |
| 2026-04-25 18:16 | -34.79778 | -71.13647 | 28232 ft | 230 kts | 200° |
| 2026-04-25 18:17 | -34.81352 | -71.14028 | 28225 ft | 230 kts | 200° |
| 2026-04-25 18:17 | -34.82917 | -71.14409 | 28229 ft | 230 kts | 200° |
| 2026-04-25 18:17 | -34.84484 | -71.14791 | 28229 ft | 230 kts | 200° |
| 2026-04-25 18:17 | -34.86050 | -71.15171 | 28223 ft | 229 kts | 200° |
| 2026-04-25 18:18 | -34.87594 | -71.15546 | 28229 ft | 229 kts | 200° |
| 2026-04-25 18:18 | -34.89157 | -71.15927 | 28227 ft | 229 kts | 200° |
| 2026-04-25 18:18 | -34.90721 | -71.16307 | 28230 ft | 229 kts | 200° |
| 2026-04-25 18:18 | -34.92285 | -71.16688 | 28229 ft | 229 kts | 200° |
| 2026-04-25 18:19 | -34.93850 | -71.17069 | 28226 ft | 229 kts | 200° |
| 2026-04-25 18:19 | -34.95415 | -71.17450 | 28224 ft | 229 kts | 200° |
| 2026-04-25 18:19 | -34.96980 | -71.17831 | 28229 ft | 229 kts | 200° |
| 2026-04-25 18:19 | -34.98545 | -71.18213 | 28228 ft | 229 kts | 200° |
| 2026-04-25 18:20 | -35.00111 | -71.18594 | 28223 ft | 229 kts | 200° |
| 2026-04-25 18:20 | -35.01655 | -71.18972 | 28228 ft | 229 kts | 200° |
| 2026-04-25 18:20 | -35.03216 | -71.19353 | 28230 ft | 229 kts | 200° |
| 2026-04-25 18:20 | -35.04779 | -71.19734 | 28230 ft | 229 kts | 200° |
| 2026-04-25 18:21 | -35.06340 | -71.20115 | 28223 ft | 229 kts | 200° |
| 2026-04-25 18:21 | -35.07904 | -71.20497 | 28229 ft | 229 kts | 200° |
| 2026-04-25 18:21 | -35.09464 | -71.20879 | 28228 ft | 229 kts | 200° |
| 2026-04-25 18:21 | -35.11021 | -71.21260 | 28225 ft | 229 kts | 200° |
| 2026-04-25 18:22 | -35.12585 | -71.21642 | 28227 ft | 229 kts | 200° |
| 2026-04-25 18:22 | -35.13094 | -71.21766 | 28229 ft | 229 kts | 200° |
| 2026-04-25 18:22 | -35.15712 | -71.22408 | 28228 ft | 229 kts | 200° |
| 2026-04-25 18:22 | -35.17279 | -71.22791 | 28228 ft | 229 kts | 200° |
| 2026-04-25 18:23 | -35.18822 | -71.23170 | 28228 ft | 229 kts | 200° |
| 2026-04-25 18:23 | -35.20385 | -71.23552 | 28225 ft | 229 kts | 200° |
| 2026-04-25 18:23 | -35.21948 | -71.23936 | 28225 ft | 229 kts | 200° |
| 2026-04-25 18:23 | -35.23511 | -71.24319 | 28227 ft | 229 kts | 200° |
| 2026-04-25 18:24 | -35.25074 | -71.24703 | 28226 ft | 229 kts | 200° |
| 2026-04-25 18:24 | -35.26639 | -71.25087 | 28238 ft | 230 kts | 200° |
| 2026-04-25 18:24 | -35.28209 | -71.25474 | 28227 ft | 230 kts | 200° |
| 2026-04-25 18:24 | -35.29781 | -71.25859 | 28227 ft | 230 kts | 200° |
| 2026-04-25 18:25 | -35.31348 | -71.26244 | 28224 ft | 230 kts | 200° |
| 2026-04-25 18:25 | -35.32916 | -71.26628 | 28225 ft | 229 kts | 200° |
| 2026-04-25 18:25 | -35.34480 | -71.27015 | 28221 ft | 230 kts | 200° |
| 2026-04-25 18:25 | -35.36043 | -71.27400 | 28220 ft | 229 kts | 200° |
| 2026-04-25 18:26 | -35.37590 | -71.27780 | 28221 ft | 229 kts | 200° |
| 2026-04-25 18:26 | -35.39176 | -71.28170 | 28222 ft | 230 kts | 200° |
| 2026-04-25 18:26 | -35.40740 | -71.28555 | 28222 ft | 229 kts | 200° |
| 2026-04-25 18:26 | -35.42302 | -71.28941 | 28222 ft | 230 kts | 200° |
| 2026-04-25 18:27 | -35.43869 | -71.29327 | 28224 ft | 230 kts | 200° |
| 2026-04-25 18:27 | -35.45435 | -71.29711 | 28224 ft | 229 kts | 200° |
| 2026-04-25 18:27 | -35.46999 | -71.30098 | 28221 ft | 229 kts | 200° |
| 2026-04-25 18:27 | -35.48561 | -71.30485 | 28219 ft | 229 kts | 200° |
| 2026-04-25 18:28 | -35.50100 | -71.30864 | 28220 ft | 229 kts | 200° |
| 2026-04-25 18:28 | -35.51681 | -71.31255 | 28235 ft | 229 kts | 200° |
| 2026-04-25 18:28 | -35.53228 | -71.31638 | 28225 ft | 229 kts | 200° |
| 2026-04-25 18:29 | -35.56348 | -71.32409 | 28222 ft | 228 kts | 200° |
| 2026-04-25 18:29 | -35.57905 | -71.32795 | 28223 ft | 228 kts | 200° |
| 2026-04-25 18:30 | -35.62614 | -71.33960 | 28224 ft | 231 kts | 200° |
| 2026-04-25 18:30 | -35.64188 | -71.34351 | 28224 ft | 231 kts | 200° |
| 2026-04-25 18:30 | -35.65768 | -71.34749 | 28226 ft | 231 kts | 200° |
| 2026-04-25 18:30 | -35.67324 | -71.35136 | 28233 ft | 231 kts | 201° |
| 2026-04-25 18:31 | -35.68919 | -71.35550 | 28210 ft | 235 kts | 200° |
| 2026-04-25 18:31 | -35.70524 | -71.35931 | 28212 ft | 235 kts | 200° |
| 2026-04-25 18:31 | -35.72129 | -71.36319 | 28211 ft | 234 kts | 200° |
| 2026-04-25 18:31 | -35.73724 | -71.36721 | 28201 ft | 234 kts | 200° |
| 2026-04-25 18:32 | -35.75309 | -71.37123 | 28210 ft | 233 kts | 200° |
| 2026-04-25 18:32 | -35.76902 | -71.37515 | 28220 ft | 232 kts | 200° |
| 2026-04-25 18:32 | -35.78476 | -71.37905 | 28216 ft | 230 kts | 200° |
| 2026-04-25 18:32 | -35.80037 | -71.38283 | 28207 ft | 225 kts | 200° |
| 2026-04-25 18:33 | -35.81554 | -71.38658 | 28220 ft | 222 kts | 202° |
| 2026-04-25 18:33 | -35.83072 | -71.39068 | 28217 ft | 224 kts | 201° |
| 2026-04-25 18:33 | -35.84603 | -71.39449 | 28215 ft | 225 kts | 200° |
| 2026-04-25 18:33 | -35.86123 | -71.39819 | 28213 ft | 225 kts | 200° |
| 2026-04-25 18:34 | -35.87661 | -71.40200 | 28216 ft | 225 kts | 201° |
| 2026-04-25 18:34 | -35.89203 | -71.40587 | 28218 ft | 226 kts | 201° |
| 2026-04-25 18:34 | -35.90748 | -71.40973 | 28215 ft | 226 kts | 201° |
| 2026-04-25 18:34 | -35.92292 | -71.41358 | 28216 ft | 227 kts | 201° |
| 2026-04-25 18:35 | -35.93837 | -71.41744 | 28214 ft | 226 kts | 201° |
| 2026-04-25 18:35 | -35.95378 | -71.42128 | 28217 ft | 225 kts | 201° |
| 2026-04-25 18:35 | -35.96919 | -71.42521 | 28214 ft | 226 kts | 201° |
| 2026-04-25 18:35 | -35.98439 | -71.42899 | 28216 ft | 226 kts | 201° |
| 2026-04-25 18:36 | -35.99979 | -71.43284 | 28219 ft | 227 kts | 201° |
| 2026-04-25 18:36 | -36.01530 | -71.43672 | 28221 ft | 227 kts | 201° |
| 2026-04-25 18:36 | -36.03079 | -71.44060 | 28216 ft | 227 kts | 201° |
| 2026-04-25 18:36 | -36.04623 | -71.44449 | 28217 ft | 226 kts | 201° |
| 2026-04-25 18:37 | -36.06164 | -71.44837 | 28215 ft | 226 kts | 201° |
| 2026-04-25 18:37 | -36.07707 | -71.45221 | 28216 ft | 226 kts | 201° |
| 2026-04-25 18:37 | -36.09243 | -71.45608 | 28218 ft | 226 kts | 201° |
| 2026-04-25 18:37 | -36.10789 | -71.45997 | 28216 ft | 226 kts | 201° |
| 2026-04-25 18:38 | -36.12334 | -71.46385 | 28214 ft | 227 kts | 201° |
| 2026-04-25 18:38 | -36.13880 | -71.46773 | 28213 ft | 227 kts | 201° |
| 2026-04-25 18:38 | -36.15427 | -71.47160 | 28214 ft | 226 kts | 201° |
| 2026-04-25 18:38 | -36.16967 | -71.47550 | 28211 ft | 225 kts | 201° |
| 2026-04-25 18:39 | -36.18504 | -71.47942 | 28214 ft | 226 kts | 201° |
| 2026-04-25 18:39 | -36.20043 | -71.48327 | 28211 ft | 225 kts | 201° |
| 2026-04-25 18:39 | -36.21558 | -71.48703 | 28209 ft | 224 kts | 201° |
| 2026-04-25 18:39 | -36.23086 | -71.49090 | 28209 ft | 224 kts | 201° |
| 2026-04-25 18:40 | -36.24611 | -71.49477 | 28205 ft | 224 kts | 201° |
| 2026-04-25 18:40 | -36.26138 | -71.49863 | 28210 ft | 224 kts | 201° |
| 2026-04-25 18:40 | -36.27670 | -71.50254 | 28212 ft | 224 kts | 201° |
| 2026-04-25 18:40 | -36.29200 | -71.50636 | 28208 ft | 224 kts | 200° |
| 2026-04-25 18:41 | -36.30723 | -71.51020 | 28203 ft | 224 kts | 200° |
| 2026-04-25 18:41 | -36.32249 | -71.51399 | 28209 ft | 223 kts | 201° |
| 2026-04-25 18:41 | -36.33259 | -71.51657 | 28202 ft | 223 kts | 201° |
| 2026-04-25 18:41 | -36.35284 | -71.52176 | 28199 ft | 222 kts | 201° |
| 2026-04-25 18:42 | -36.36290 | -71.52430 | 28200 ft | 223 kts | 201° |
| 2026-04-25 18:42 | -36.37296 | -71.52682 | 28196 ft | 222 kts | 201° |
| 2026-04-25 18:42 | -36.39815 | -71.53320 | 28199 ft | 222 kts | 201° |
| 2026-04-25 18:42 | -36.41333 | -71.53705 | 28196 ft | 223 kts | 201° |
| 2026-04-25 18:43 | -36.42358 | -71.53964 | 28203 ft | 222 kts | 201° |
| 2026-04-25 18:43 | -36.43854 | -71.54343 | 28202 ft | 222 kts | 201° |
| 2026-04-25 18:43 | -36.45368 | -71.54722 | 28192 ft | 222 kts | 201° |
| 2026-04-25 18:43 | -36.46882 | -71.55108 | 28194 ft | 222 kts | 201° |
| 2026-04-25 18:44 | -36.48399 | -71.55500 | 28194 ft | 223 kts | 201° |
| 2026-04-25 18:44 | -36.49925 | -71.55887 | 28191 ft | 224 kts | 201° |
| 2026-04-25 18:44 | -36.51457 | -71.56272 | 28200 ft | 225 kts | 200° |
| 2026-04-25 18:44 | -36.52993 | -71.56663 | 28201 ft | 225 kts | 200° |
| 2026-04-25 18:45 | -36.54506 | -71.57047 | 28201 ft | 224 kts | 200° |
| 2026-04-25 18:45 | -36.56032 | -71.57435 | 28200 ft | 224 kts | 200° |
| 2026-04-25 18:45 | -36.57558 | -71.57823 | 28198 ft | 223 kts | 200° |
| 2026-04-25 18:45 | -36.59076 | -71.58208 | 28195 ft | 222 kts | 200° |
| 2026-04-25 18:46 | -36.60587 | -71.58594 | 28198 ft | 222 kts | 200° |
| 2026-04-25 18:46 | -36.62099 | -71.58980 | 28199 ft | 222 kts | 200° |
| 2026-04-25 18:46 | -36.63612 | -71.59362 | 28195 ft | 222 kts | 200° |
| 2026-04-25 18:47 | -36.66972 | -71.60222 | 28201 ft | 221 kts | 200° |
| 2026-04-25 18:47 | -36.68479 | -71.60607 | 28195 ft | 221 kts | 200° |
| 2026-04-25 18:47 | -36.69986 | -71.60991 | 28196 ft | 221 kts | 200° |
| 2026-04-25 18:47 | -36.71496 | -71.61376 | 28196 ft | 222 kts | 200° |
| 2026-04-25 18:48 | -36.73006 | -71.61762 | 28201 ft | 221 kts | 200° |
| 2026-04-25 18:48 | -36.74517 | -71.62149 | 28214 ft | 222 kts | 200° |
| 2026-04-25 18:48 | -36.76032 | -71.62530 | 28203 ft | 221 kts | 200° |
| 2026-04-25 18:48 | -36.77517 | -71.62908 | 28201 ft | 220 kts | 200° |
| 2026-04-25 18:49 | -36.79014 | -71.63303 | 28199 ft | 221 kts | 200° |
| 2026-04-25 18:49 | -36.80524 | -71.63691 | 28202 ft | 222 kts | 200° |
| 2026-04-25 18:49 | -36.82038 | -71.64072 | 28204 ft | 222 kts | 200° |
| 2026-04-25 18:49 | -36.83553 | -71.64460 | 28206 ft | 222 kts | 200° |
| 2026-04-25 18:50 | -36.85074 | -71.64849 | 28207 ft | 223 kts | 200° |
| 2026-04-25 18:50 | -36.86591 | -71.65239 | 28205 ft | 223 kts | 200° |
| 2026-04-25 18:50 | -36.88111 | -71.65629 | 28199 ft | 222 kts | 200° |
| 2026-04-25 18:50 | -36.89619 | -71.66026 | 28203 ft | 221 kts | 200° |
| 2026-04-25 18:51 | -36.91121 | -71.66410 | 28211 ft | 220 kts | 200° |
| 2026-04-25 18:51 | -36.91611 | -71.66531 | 28207 ft | 220 kts | 200° |
| 2026-04-25 18:51 | -36.94128 | -71.67165 | 28204 ft | 221 kts | 200° |
| 2026-04-25 18:51 | -36.95620 | -71.67553 | 28199 ft | 222 kts | 200° |
| 2026-04-25 18:52 | -36.97125 | -71.67943 | 28205 ft | 221 kts | 200° |
| 2026-04-25 18:52 | -36.98632 | -71.68331 | 28232 ft | 221 kts | 199° |
| 2026-04-25 18:52 | -37.00144 | -71.68704 | 28206 ft | 219 kts | 199° |
| 2026-04-25 18:52 | -37.01633 | -71.69093 | 28211 ft | 219 kts | 200° |
| 2026-04-25 18:53 | -37.03123 | -71.69496 | 28210 ft | 220 kts | 200° |
| 2026-04-25 18:53 | -37.04624 | -71.69882 | 28212 ft | 221 kts | 199° |
| 2026-04-25 18:53 | -37.06136 | -71.70265 | 28234 ft | 221 kts | 199° |
| 2026-04-25 18:53 | -37.07645 | -71.70652 | 28237 ft | 222 kts | 199° |
| 2026-04-25 18:54 | -37.10655 | -71.71429 | 28236 ft | 222 kts | 199° |
| 2026-04-25 18:54 | -37.12174 | -71.71821 | 28236 ft | 223 kts | 199° |
| 2026-04-25 18:54 | -37.13693 | -71.72204 | 28238 ft | 221 kts | 199° |
| 2026-04-25 18:55 | -37.14693 | -71.72463 | 28232 ft | 222 kts | 200° |
| 2026-04-25 18:55 | -37.16677 | -71.72981 | 28236 ft | 218 kts | 199° |
| 2026-04-25 18:55 | -37.18166 | -71.73369 | 28233 ft | 219 kts | 199° |
| 2026-04-25 18:55 | -37.19663 | -71.73760 | 28231 ft | 220 kts | 199° |
| 2026-04-25 18:56 | -37.21163 | -71.74146 | 28232 ft | 221 kts | 199° |
| 2026-04-25 18:56 | -37.22677 | -71.74537 | 28243 ft | 222 kts | 199° |
| 2026-04-25 18:56 | -37.24191 | -71.74929 | 28238 ft | 222 kts | 199° |
| 2026-04-25 18:56 | -37.25705 | -71.75320 | 28242 ft | 222 kts | 199° |
| 2026-04-25 18:57 | -37.27222 | -71.75713 | 28245 ft | 223 kts | 199° |
| 2026-04-25 18:57 | -37.28744 | -71.76109 | 28242 ft | 223 kts | 199° |
| 2026-04-25 18:57 | -37.30262 | -71.76502 | 28243 ft | 223 kts | 199° |
| 2026-04-25 18:57 | -37.30756 | -71.76630 | 28243 ft | 223 kts | 199° |
| 2026-04-25 18:58 | -37.33277 | -71.77284 | 28240 ft | 222 kts | 199° |
| 2026-04-25 18:58 | -37.36300 | -71.78070 | 28237 ft | 221 kts | 199° |
| 2026-04-25 18:58 | -37.37808 | -71.78461 | 28239 ft | 221 kts | 199° |
| 2026-04-25 18:59 | -37.40334 | -71.79120 | 28238 ft | 222 kts | 199° |
| 2026-04-25 18:59 | -37.43848 | -71.80034 | 28242 ft | 222 kts | 199° |
| 2026-04-25 19:00 | -37.46380 | -71.80688 | 28240 ft | 222 kts | 199° |
| 2026-04-25 19:00 | -37.47874 | -71.81083 | 28243 ft | 222 kts | 199° |
| 2026-04-25 19:01 | -37.50903 | -71.81874 | 28242 ft | 223 kts | 199° |
| 2026-04-25 19:01 | -37.52432 | -71.82265 | 28244 ft | 221 kts | 199° |
| 2026-04-25 19:01 | -37.53922 | -71.82659 | 28242 ft | 221 kts | 199° |
| 2026-04-25 19:01 | -37.55446 | -71.83062 | 28241 ft | 221 kts | 199° |
| 2026-04-25 19:02 | -37.58447 | -71.83840 | 28239 ft | 221 kts | 199° |
| 2026-04-25 19:02 | -37.59953 | -71.84236 | 28259 ft | 221 kts | 199° |
| 2026-04-25 19:02 | -37.61459 | -71.84632 | 28261 ft | 221 kts | 199° |
| 2026-04-25 19:03 | -37.63969 | -71.85288 | 28256 ft | 222 kts | 199° |
| 2026-04-25 19:03 | -37.65994 | -71.85818 | 28258 ft | 222 kts | 199° |
| 2026-04-25 19:03 | -37.67504 | -71.86214 | 28256 ft | 222 kts | 199° |
| 2026-04-25 19:04 | -37.70526 | -71.87006 | 28293 ft | 222 kts | 199° |
| 2026-04-25 19:04 | -37.72037 | -71.87421 | 28267 ft | 220 kts | 202° |
| 2026-04-25 19:05 | -37.74984 | -71.88342 | 28255 ft | 220 kts | 200° |
| 2026-04-25 19:05 | -37.77930 | -71.89242 | 28254 ft | 216 kts | 201° |
| 2026-04-25 19:05 | -37.79394 | -71.89707 | 28256 ft | 217 kts | 201° |
| 2026-04-25 19:06 | -37.80857 | -71.90162 | 28261 ft | 215 kts | 201° |
| 2026-04-25 19:06 | -37.83770 | -71.91070 | 28243 ft | 215 kts | 201° |
| 2026-04-25 19:06 | -37.85225 | -71.91529 | 28248 ft | 216 kts | 201° |
| 2026-04-25 19:07 | -37.88145 | -71.92433 | 28256 ft | 216 kts | 201° |
| 2026-04-25 19:07 | -37.89610 | -71.92889 | 28252 ft | 216 kts | 201° |
| 2026-04-25 19:08 | -37.92538 | -71.93806 | 28254 ft | 217 kts | 201° |
| 2026-04-25 19:08 | -37.94007 | -71.94269 | 28260 ft | 218 kts | 201° |
| 2026-04-25 19:09 | -37.98449 | -71.95653 | 28257 ft | 219 kts | 201° |
| 2026-04-25 19:09 | -37.99426 | -71.95958 | 28260 ft | 219 kts | 201° |
| 2026-04-25 19:09 | -38.02881 | -71.97050 | 28253 ft | 221 kts | 201° |
| 2026-04-25 19:10 | -38.04374 | -71.97508 | 28255 ft | 220 kts | 201° |
| 2026-04-25 19:10 | -38.05860 | -71.97972 | 28273 ft | 220 kts | 201° |
| 2026-04-25 19:10 | -38.07344 | -71.98442 | 28271 ft | 220 kts | 201° |
| 2026-04-25 19:10 | -38.08830 | -71.98909 | 28275 ft | 219 kts | 201° |
| 2026-04-25 19:11 | -38.10236 | -71.99556 | 28273 ft | 211 kts | 217° |
| 2026-04-25 19:11 | -38.11354 | -72.00732 | 28277 ft | 208 kts | 223° |
| 2026-04-25 19:11 | -38.12455 | -72.01932 | 28288 ft | 209 kts | 221° |
| 2026-04-25 19:11 | -38.13615 | -72.03053 | 28283 ft | 209 kts | 219° |
| 2026-04-25 19:12 | -38.14797 | -72.04133 | 28291 ft | 209 kts | 219° |
| 2026-04-25 19:12 | -38.15986 | -72.05221 | 28288 ft | 213 kts | 219° |
| 2026-04-25 19:12 | -38.17195 | -72.06344 | 28168 ft | 220 kts | 219° |
| 2026-04-25 19:12 | -38.18491 | -72.07556 | 27614 ft | 241 kts | 219° |
| 2026-04-25 19:13 | -38.19886 | -72.08855 | 27137 ft | 255 kts | 219° |
| 2026-04-25 19:13 | -38.21330 | -72.10196 | 26647 ft | 265 kts | 219° |
| 2026-04-25 19:13 | -38.22837 | -72.11594 | 26158 ft | 269 kts | 218° |
| 2026-04-25 19:13 | -38.24356 | -72.13005 | 25672 ft | 271 kts | 218° |
| 2026-04-25 19:14 | -38.25882 | -72.14426 | 25133 ft | 273 kts | 218° |
| 2026-04-25 19:14 | -38.26923 | -72.15397 | 24653 ft | 275 kts | 218° |
| 2026-04-25 19:14 | -38.28980 | -72.17318 | 23707 ft | 278 kts | 218° |
| 2026-04-25 19:14 | -38.30544 | -72.18778 | 22896 ft | 280 kts | 218° |
| 2026-04-25 19:15 | -38.32123 | -72.20238 | 22112 ft | 281 kts | 218° |
| 2026-04-25 19:15 | -38.33709 | -72.21716 | 21343 ft | 283 kts | 218° |
| 2026-04-25 19:15 | -38.35296 | -72.23205 | 20591 ft | 284 kts | 219° |
| 2026-04-25 19:15 | -38.36892 | -72.24703 | 19862 ft | 286 kts | 219° |
| 2026-04-25 19:16 | -38.38492 | -72.26206 | 19142 ft | 285 kts | 218° |
| 2026-04-25 19:16 | -38.40089 | -72.27698 | 18425 ft | 284 kts | 218° |
| 2026-04-25 19:16 | -38.41676 | -72.29176 | 17627 ft | 281 kts | 219° |
| 2026-04-25 19:16 | -38.43239 | -72.30644 | 16850 ft | 275 kts | 219° |
| 2026-04-25 19:17 | -38.44745 | -72.32071 | 16087 ft | 263 kts | 219° |
| 2026-04-25 19:17 | -38.46179 | -72.33418 | 15365 ft | 250 kts | 219° |
| 2026-04-25 19:17 | -38.47567 | -72.34694 | 14636 ft | 242 kts | 219° |
| 2026-04-25 19:17 | -38.48908 | -72.35944 | 13897 ft | 236 kts | 220° |
| 2026-04-25 19:18 | -38.50221 | -72.37181 | 13106 ft | 233 kts | 220° |
| 2026-04-25 19:18 | -38.51502 | -72.38384 | 12500 ft | 231 kts | 219° |
| 2026-04-25 19:18 | -38.52808 | -72.39595 | 11992 ft | 233 kts | 219° |
| 2026-04-25 19:18 | -38.54105 | -72.40818 | 11494 ft | 230 kts | 219° |
| 2026-04-25 19:19 | -38.55362 | -72.42024 | 11005 ft | 222 kts | 219° |
| 2026-04-25 19:19 | -38.56593 | -72.43177 | 10516 ft | 217 kts | 219° |
| 2026-04-25 19:19 | -38.57805 | -72.44309 | 10015 ft | 214 kts | 219° |
| 2026-04-25 19:19 | -38.58602 | -72.45057 | 9657 ft | 213 kts | 219° |
| 2026-04-25 19:20 | -38.60180 | -72.46543 | 8957 ft | 209 kts | 218° |
| 2026-04-25 19:20 | -38.61348 | -72.47648 | 8441 ft | 208 kts | 218° |
| 2026-04-25 19:20 | -38.62505 | -72.48738 | 7934 ft | 206 kts | 218° |
| 2026-04-25 19:20 | -38.63659 | -72.49824 | 7435 ft | 205 kts | 218° |
| 2026-04-25 19:21 | -38.64797 | -72.50900 | 6941 ft | 203 kts | 217° |
| 2026-04-25 19:21 | -38.67055 | -72.53031 | 5907 ft | 199 kts | 217° |
| 2026-04-25 19:21 | -38.68157 | -72.54072 | 5395 ft | 191 kts | 218° |
| 2026-04-25 19:22 | -38.69174 | -72.55045 | 4881 ft | 181 kts | 217° |
| 2026-04-25 19:22 | -38.70170 | -72.55996 | 4364 ft | 177 kts | 218° |
| 2026-04-25 19:22 | -38.72423 | -72.57217 | 3312 ft | 179 kts | 197° |
| 2026-04-25 19:23 | -38.73620 | -72.57668 | 2828 ft | 179 kts | 199° |
| 2026-04-25 19:23 | -38.75882 | -72.58560 | 2303 ft | 166 kts | 199° |
| 2026-04-25 19:23 | -38.76984 | -72.58996 | 2038 ft | 165 kts | 199° |
| 2026-04-25 19:24 | -38.78054 | -72.59416 | 1956 ft | 156 kts | 199° |
| 2026-04-25 19:24 | -38.79072 | -72.59811 | 1948 ft | 150 kts | 199° |
| 2026-04-25 19:24 | -38.81028 | -72.60587 | 1942 ft | 144 kts | 200° |
| 2026-04-25 19:25 | -38.82935 | -72.61355 | 1944 ft | 146 kts | 206° |
| 2026-04-25 19:25 | -38.83855 | -72.61910 | 2185 ft | 150 kts | 206° |
| 2026-04-25 19:25 | -38.84831 | -72.62453 | 2712 ft | 155 kts | 206° |
| 2026-04-25 19:26 | -38.85827 | -72.63034 | 3242 ft | 159 kts | 206° |
| 2026-04-25 19:26 | -38.86845 | -72.63623 | 3765 ft | 162 kts | 206° |
| 2026-04-25 19:26 | -38.87873 | -72.64209 | 4284 ft | 162 kts | 206° |
| 2026-04-25 19:26 | -38.88994 | -72.64384 | 4809 ft | 163 kts | 190° |
| 2026-04-25 19:27 | -38.89908 | -72.65082 | 5316 ft | 157 kts | 235° |
| 2026-04-25 19:27 | -38.90280 | -72.65898 | 5663 ft | 157 kts | 236° |
| 2026-04-25 19:27 | -38.91248 | -72.67261 | 6363 ft | 156 kts | 221° |
| 2026-04-25 19:27 | -38.92079 | -72.68160 | 6882 ft | 156 kts | 220° |
| 2026-04-25 19:28 | -38.92916 | -72.69043 | 7365 ft | 156 kts | 220° |
| 2026-04-25 19:28 | -38.93762 | -72.69926 | 7863 ft | 156 kts | 220° |
| 2026-04-25 19:28 | -38.94604 | -72.70809 | 8365 ft | 156 kts | 220° |
| 2026-04-25 19:28 | -38.95445 | -72.71689 | 8886 ft | 156 kts | 220° |
| 2026-04-25 19:29 | -38.96286 | -72.72569 | 9408 ft | 156 kts | 220° |
| 2026-04-25 19:29 | -38.97127 | -72.73449 | 9935 ft | 156 kts | 221° |
| 2026-04-25 19:29 | -38.97968 | -72.74331 | 10436 ft | 155 kts | 221° |
| 2026-04-25 19:29 | -38.98792 | -72.75193 | 10912 ft | 154 kts | 221° |
| 2026-04-25 19:30 | -38.99620 | -72.76060 | 11400 ft | 153 kts | 221° |
| 2026-04-25 19:30 | -39.00442 | -72.76923 | 11896 ft | 151 kts | 221° |
| 2026-04-25 19:30 | -39.01262 | -72.77781 | 12287 ft | 157 kts | 221° |
| 2026-04-25 19:30 | -39.02167 | -72.78739 | 12302 ft | 179 kts | 221° |
| 2026-04-25 19:31 | -39.03176 | -72.79800 | 12307 ft | 195 kts | 221° |
| 2026-04-25 19:31 | -39.04258 | -72.80933 | 12307 ft | 206 kts | 221° |
| 2026-04-25 19:31 | -39.05385 | -72.82120 | 12307 ft | 213 kts | 221° |
| 2026-04-25 19:31 | -39.06547 | -72.83343 | 12308 ft | 217 kts | 221° |
| 2026-04-25 19:32 | -39.07729 | -72.84583 | 12305 ft | 220 kts | 221° |
| 2026-04-25 19:32 | -39.08917 | -72.85832 | 12304 ft | 222 kts | 221° |
| 2026-04-25 19:32 | -39.10118 | -72.87096 | 12310 ft | 223 kts | 221° |
| 2026-04-25 19:32 | -39.10507 | -72.87507 | 12309 ft | 224 kts | 221° |
| 2026-04-25 19:33 | -39.12531 | -72.89634 | 12303 ft | 225 kts | 221° |
| 2026-04-25 19:33 | -39.13742 | -72.90911 | 12300 ft | 225 kts | 221° |
| 2026-04-25 19:33 | -39.14953 | -72.92187 | 12302 ft | 224 kts | 221° |
| 2026-04-25 19:33 | -39.16160 | -72.93459 | 12301 ft | 224 kts | 221° |
| 2026-04-25 19:34 | -39.17321 | -72.94700 | 12303 ft | 201 kts | 223° |
| 2026-04-25 19:34 | -39.18334 | -72.95800 | 11882 ft | 188 kts | 221° |
| 2026-04-25 19:34 | -39.19338 | -72.96841 | 11251 ft | 187 kts | 221° |
| 2026-04-25 19:34 | -39.20336 | -72.97881 | 10643 ft | 182 kts | 221° |
| 2026-04-25 19:35 | -39.21309 | -72.98907 | 10077 ft | 179 kts | 221° |
| 2026-04-25 19:35 | -39.22292 | -72.99936 | 9573 ft | 186 kts | 221° |
| 2026-04-25 19:35 | -39.23304 | -73.01003 | 9045 ft | 189 kts | 221° |
| 2026-04-25 19:35 | -39.24345 | -73.02025 | 8546 ft | 186 kts | 217° |
| 2026-04-25 19:36 | -39.25345 | -73.03101 | 8036 ft | 189 kts | 226° |
| 2026-04-25 19:36 | -39.26280 | -73.04281 | 7518 ft | 184 kts | 223° |
| 2026-04-25 19:36 | -39.27281 | -73.05270 | 7015 ft | 178 kts | 219° |
| 2026-04-25 19:36 | -39.28239 | -73.06233 | 6518 ft | 172 kts | 222° |
| 2026-04-25 19:37 | -39.29166 | -73.07216 | 5992 ft | 172 kts | 222° |
| 2026-04-25 19:37 | -39.30092 | -73.08187 | 5470 ft | 170 kts | 220° |
| 2026-04-25 19:37 | -39.31211 | -73.08704 | 4961 ft | 180 kts | 190° |
| 2026-04-25 19:37 | -39.32463 | -73.08774 | 4436 ft | 180 kts | 190° |
| 2026-04-25 19:38 | -39.33694 | -73.08891 | 3955 ft | 179 kts | 191° |
| 2026-04-25 19:38 | -39.34911 | -73.09014 | 3910 ft | 174 kts | 190° |
| 2026-04-25 19:38 | -39.36140 | -73.09098 | 3929 ft | 181 kts | 189° |
| 2026-04-25 19:38 | -39.37410 | -73.09219 | 3933 ft | 185 kts | 191° |
| 2026-04-25 19:39 | -39.38712 | -73.09372 | 3931 ft | 190 kts | 190° |
| 2026-04-25 19:39 | -39.40024 | -73.09481 | 3928 ft | 188 kts | 189° |
| 2026-04-25 19:39 | -39.41338 | -73.09471 | 3863 ft | 192 kts | 182° |
| 2026-04-25 19:39 | -39.42678 | -73.09413 | 3655 ft | 188 kts | 185° |
| 2026-04-25 19:40 | -39.43949 | -73.09383 | 3434 ft | 177 kts | 186° |
| 2026-04-25 19:40 | -39.45153 | -73.09367 | 3234 ft | 170 kts | 185° |
| 2026-04-25 19:40 | -39.46325 | -73.09308 | 3017 ft | 168 kts | 185° |
| 2026-04-25 19:40 | -39.47473 | -73.09275 | 2794 ft | 166 kts | 186° |
| 2026-04-25 19:41 | -39.48643 | -73.09242 | 2625 ft | 165 kts | 184° |
| 2026-04-25 19:41 | -39.49773 | -73.09177 | 2614 ft | 161 kts | 184° |
| 2026-04-25 19:41 | -39.50883 | -73.09133 | 2604 ft | 158 kts | 184° |
| 2026-04-25 19:41 | -39.51242 | -73.09118 | 2580 ft | 159 kts | 184° |
| 2026-04-25 19:42 | -39.53173 | -73.09059 | 2149 ft | 172 kts | 184° |
| 2026-04-25 19:42 | -39.54384 | -73.09019 | 1894 ft | 174 kts | 183° |
| 2026-04-25 19:42 | -39.55594 | -73.08976 | 1643 ft | 173 kts | 182° |
| 2026-04-25 19:42 | -39.56760 | -73.08927 | 1605 ft | 163 kts | 182° |
| 2026-04-25 19:43 | -39.57880 | -73.08882 | 1403 ft | 156 kts | 182° |
| 2026-04-25 19:43 | -39.58941 | -73.08835 | 1181 ft | 150 kts | 183° |
| 2026-04-25 19:43 | -39.59977 | -73.08791 | 958 ft | 148 kts | 184° |
| 2026-04-25 19:43 | -39.60988 | -73.08766 | 747 ft | 144 kts | 183° |
| 2026-04-25 19:44 | -39.61982 | -73.08725 | 551 ft | 140 kts | 181° |
| 2026-04-25 19:44 | -39.62867 | -73.08711 | 375 ft | 115 kts | 178° |
| 2026-04-25 19:44 | -39.63631 | -73.08654 | 231 ft | 107 kts | 184° |
| 2026-04-25 19:44 | -39.64127 | -73.08651 | 125 ft | 107 kts | 182° |
| 2026-04-25 19:45 | -39.64779 | -73.08638 | 71 ft | 80 kts | 181° |
| 2026-04-25 19:45 | -39.65231 | -73.08625 | 68 ft | 35 kts | 172° |
| 2026-04-25 19:45 | -39.65177 | -73.08506 | 69 ft | 25 kts | 30° |
| 2026-04-25 19:45 | -39.65102 | -73.08328 | 71 ft | 23 kts | 96° |
| 2026-04-25 19:46 | -39.65167 | -73.08230 | 70 ft | 7 kts | 167° |
| 2026-04-25 19:46 | -39.65174 | -73.08230 | 71 ft | 0 kts | 184° |